Time;durP1;ratioP1;P1;durP2;ratioP2;P2;SDS_P1;SDS_P2;PMS_P1;PMS_P2;Temp;Humidity;BMP_temperature;BMP_pressure;BME280_temperature;BME280_humidity;BME280_pressure;Samples;Min_cycle;Max_cycle;Signal;HPM_P1;HPM_P2
2024/04/03 00:00:29;;;;;;;3.20;1.40;;;11.40;99.90;;;;;;5008673;28;20757;-70
2024/04/03 00:02:55;;;;;;;2.73;1.33;;;11.20;99.90;;;;;;5018051;28;20504;-70
2024/04/03 00:05:21;;;;;;;2.30;1.30;;;11.20;99.90;;;;;;5020729;28;20557;-69
2024/04/03 00:07:46;;;;;;;1.63;1.27;;;11.10;99.90;;;;;;5011199;28;20196;-68
2024/04/03 00:10:13;;;;;;;3.50;1.37;;;11.00;99.90;;;;;;5019575;28;20671;-68
2024/04/03 00:12:39;;;;;;;2.20;1.17;;;11.00;99.90;;;;;;5017718;28;20261;-69
2024/04/03 00:15:05;;;;;;;2.50;1.37;;;10.90;99.90;;;;;;5017568;28;20508;-71
2024/04/03 00:17:31;;;;;;;3.33;1.57;;;11.00;99.90;;;;;;5014221;28;20466;-70
2024/04/03 00:19:57;;;;;;;3.07;1.80;;;11.00;99.90;;;;;;5022844;28;20432;-68
2024/04/03 00:22:22;;;;;;;2.03;1.17;;;11.10;99.90;;;;;;5023082;28;20182;-69
2024/04/03 00:24:48;;;;;;;2.37;1.00;;;11.20;99.90;;;;;;5009127;28;20173;-69
2024/04/03 00:27:15;;;;;;;2.57;1.30;;;11.30;99.90;;;;;;5019384;28;20175;-69
2024/04/03 00:29:40;;;;;;;3.90;1.37;;;11.40;99.90;;;;;;5011699;28;20287;-72
2024/04/03 00:32:06;;;;;;;2.13;1.13;;;11.20;99.90;;;;;;5014332;28;20621;-69
2024/04/03 00:34:32;;;;;;;2.50;1.20;;;11.20;99.90;;;;;;5025645;28;20180;-69
2024/04/03 00:36:57;;;;;;;1.80;1.30;;;11.30;99.90;;;;;;5015267;28;20194;-71
2024/04/03 00:39:23;;;;;;;2.73;1.03;;;11.40;99.90;;;;;;5021662;28;20211;-71
2024/04/03 00:41:48;;;;;;;2.93;1.33;;;11.40;99.90;;;;;;5017520;28;20232;-70
2024/04/03 00:44:14;;;;;;;3.00;1.40;;;11.40;99.90;;;;;;5011015;28;20200;-70
2024/04/03 00:46:40;;;;;;;2.57;1.30;;;11.30;99.90;;;;;;5014561;28;20186;-68
2024/04/03 00:49:07;;;;;;;1.80;1.30;;;11.30;99.90;;;;;;5017048;28;20907;-69
2024/04/03 00:51:34;;;;;;;3.37;1.20;;;11.20;99.90;;;;;;5018397;28;20986;-70
2024/04/03 00:54:00;;;;;;;2.10;1.10;;;11.20;99.90;;;;;;5023943;28;20464;-69
2024/04/03 00:56:26;;;;;;;4.10;1.80;;;11.10;99.90;;;;;;5015805;28;20411;-70
2024/04/03 00:58:52;;;;;;;2.77;1.07;;;11.10;99.90;;;;;;5008534;28;21067;-70
2024/04/03 01:01:18;;;;;;;2.83;1.50;;;11.10;99.90;;;;;;5011971;28;20466;-70
2024/04/03 01:03:50;;;;;;;3.77;1.10;;;11.10;99.90;;;;;;5020258;28;20442;-70
2024/04/03 01:06:18;;;;;;;2.07;1.40;;;11.10;99.90;;;;;;5013748;28;20426;-70
2024/04/03 01:08:44;;;;;;;3.70;1.60;;;11.00;99.90;;;;;;5008608;28;20960;-69
2024/04/03 01:11:09;;;;;;;4.10;1.27;;;11.00;99.90;;;;;;5019724;28;20425;-71
2024/04/03 01:13:35;;;;;;;1.97;1.03;;;11.00;99.90;;;;;;5024391;28;20285;-71
2024/04/03 01:16:04;;;;;;;2.87;1.20;;;11.10;99.90;;;;;;5015651;28;20206;-69
2024/04/03 01:18:30;;;;;;;1.63;0.97;;;11.20;99.90;;;;;;5024389;28;20238;-70
2024/04/03 01:20:56;;;;;;;2.10;1.40;;;11.20;99.90;;;;;;5017282;28;20480;-70
2024/04/03 01:23:22;;;;;;;1.60;1.20;;;11.30;99.90;;;;;;5020141;28;20416;-70
2024/04/03 01:25:48;;;;;;;1.70;1.30;;;11.30;99.90;;;;;;5013615;28;20737;-72
2024/04/03 01:28:16;;;;;;;2.53;1.20;;;11.10;99.90;;;;;;5022123;28;20477;-68
2024/04/03 01:30:41;;;;;;;2.30;1.10;;;11.30;99.90;;;;;;5025667;28;20495;-68
2024/04/03 01:33:07;;;;;;;7.37;2.33;;;11.30;99.90;;;;;;5021538;28;20518;-69
2024/04/03 01:35:32;;;;;;;3.77;1.77;;;11.40;99.90;;;;;;5016656;28;20188;-71
2024/04/03 01:37:59;;;;;;;2.70;1.30;;;11.50;99.90;;;;;;5017193;28;20207;-71
2024/04/03 01:40:24;;;;;;;2.90;1.47;;;11.40;99.90;;;;;;5008713;28;20184;-69
2024/04/03 01:42:50;;;;;;;2.13;1.40;;;11.50;99.90;;;;;;5018056;28;20440;-68
2024/04/03 01:45:16;;;;;;;1.77;1.40;;;11.60;99.90;;;;;;5015530;28;20214;-69
2024/04/03 01:47:43;;;;;;;2.30;1.10;;;11.60;99.90;;;;;;5011315;28;20234;-70
2024/04/03 01:50:11;;;;;;;2.83;1.20;;;11.60;99.90;;;;;;5017868;28;20427;-69
2024/04/03 01:52:36;;;;;;;1.90;1.20;;;11.60;99.90;;;;;;5016132;28;20857;-69
2024/04/03 01:55:02;;;;;;;3.23;1.33;;;11.60;99.90;;;;;;5019888;28;20422;-70
2024/04/03 01:57:28;;;;;;;4.90;1.80;;;11.50;99.90;;;;;;5014624;28;20231;-71
2024/04/03 01:59:53;;;;;;;4.47;1.40;;;11.40;99.90;;;;;;5020141;28;20191;-70
2024/04/03 02:02:19;;;;;;;5.57;1.90;;;11.10;99.90;;;;;;5011971;28;20179;-70
2024/04/03 02:04:44;;;;;;;3.77;1.77;;;11.10;99.90;;;;;;5009651;28;20197;-69
2024/04/03 02:07:10;;;;;;;2.93;1.60;;;11.10;99.90;;;;;;5010019;28;20694;-69
2024/04/03 02:09:35;;;;;;;3.60;1.70;;;11.20;99.90;;;;;;5018316;28;20244;-71
2024/04/03 02:12:02;;;;;;;4.70;1.63;;;11.10;99.90;;;;;;5022549;28;20186;-69
2024/04/03 02:14:28;;;;;;;3.00;1.57;;;11.10;99.90;;;;;;5006873;28;20553;-70
2024/04/03 02:16:54;;;;;;;2.20;1.40;;;11.20;99.90;;;;;;5017539;28;20494;-70
2024/04/03 02:19:20;;;;;;;1.87;1.20;;;11.20;99.90;;;;;;5019907;28;21585;-69
2024/04/03 02:21:46;;;;;;;3.83;1.40;;;11.30;99.90;;;;;;5012896;28;20522;-70
2024/04/03 02:24:11;;;;;;;2.30;1.40;;;11.30;99.90;;;;;;5011051;28;20712;-69
2024/04/03 02:26:37;;;;;;;3.80;1.33;;;11.20;99.90;;;;;;5019006;28;20178;-70
2024/04/03 02:29:03;;;;;;;3.30;1.93;;;11.20;99.90;;;;;;5021286;28;20230;-70
2024/04/03 02:31:29;;;;;;;2.80;1.37;;;11.20;99.90;;;;;;5013107;28;20256;-72
2024/04/03 02:33:54;;;;;;;2.70;1.43;;;11.30;99.90;;;;;;5015575;28;20410;-69
2024/04/03 02:36:20;;;;;;;2.93;1.40;;;11.30;99.90;;;;;;5009772;28;20174;-72
2024/04/03 02:38:46;;;;;;;2.00;1.50;;;11.40;99.90;;;;;;5006193;28;20465;-71
2024/04/03 02:41:12;;;;;;;1.63;1.00;;;11.40;99.90;;;;;;5020221;28;20211;-70
2024/04/03 02:43:37;;;;;;;1.70;1.03;;;11.50;99.90;;;;;;5011069;28;20434;-71
2024/04/03 02:46:03;;;;;;;1.40;1.10;;;11.50;99.90;;;;;;5013700;28;20444;-70
2024/04/03 02:48:29;;;;;;;1.90;1.27;;;11.50;99.90;;;;;;5009128;28;20269;-68
2024/04/03 02:51:09;;;;;;;2.23;1.27;;;11.50;99.90;;;;;;5022411;28;20186;-71
2024/04/03 02:53:35;;;;;;;6.40;1.70;;;11.50;99.90;;;;;;5022928;28;20176;-70
2024/04/03 02:56:05;;;;;;;2.30;1.60;;;11.50;99.90;;;;;;5022868;28;20983;-70
2024/04/03 02:58:31;;;;;;;2.47;1.30;;;11.50;99.90;;;;;;5019308;28;20601;-71
2024/04/03 03:01:08;;;;;;;4.10;1.23;;;11.40;99.90;;;;;;5014844;28;20413;-69
2024/04/03 03:03:34;;;;;;;2.00;1.30;;;11.40;99.90;;;;;;5020326;28;20509;-68
2024/04/03 03:06:02;;;;;;;1.80;1.30;;;11.40;99.90;;;;;;5020212;28;20418;-70
2024/04/03 03:08:29;;;;;;;1.27;1.17;;;11.30;99.90;;;;;;5007243;28;20438;-72
2024/04/03 03:10:55;;;;;;;2.93;1.23;;;11.40;99.90;;;;;;5011304;28;20419;-71
2024/04/03 03:13:21;;;;;;;2.07;1.57;;;11.40;99.90;;;;;;5022372;28;20416;-71
2024/04/03 03:15:54;;;;;;;1.93;1.30;;;11.40;99.90;;;;;;5011042;28;20503;-69
2024/04/03 03:18:21;;;;;;;1.60;1.10;;;11.50;99.90;;;;;;5015620;28;20846;-71
2024/04/03 03:20:48;;;;;;;1.67;1.03;;;11.60;99.90;;;;;;5012763;28;20995;-69
2024/04/03 03:23:14;;;;;;;2.30;1.20;;;11.60;99.90;;;;;;5014688;28;20505;-70
2024/04/03 03:25:41;;;;;;;1.90;1.30;;;11.70;99.90;;;;;;5022547;28;20426;-70
2024/04/03 03:28:07;;;;;;;3.13;1.27;;;11.70;99.90;;;;;;5017056;28;20446;-69
2024/04/03 03:30:32;;;;;;;3.53;1.67;;;11.70;99.90;;;;;;5015936;28;20938;-69
2024/04/03 03:32:58;;;;;;;1.83;1.37;;;11.70;99.90;;;;;;5019999;28;20211;-68
2024/04/03 03:35:23;;;;;;;1.20;0.90;;;11.70;99.90;;;;;;5014520;28;20224;-69
2024/04/03 03:37:49;;;;;;;4.17;1.60;;;11.70;99.90;;;;;;5003908;28;20264;-68
2024/04/03 03:40:17;;;;;;;2.67;1.53;;;11.70;99.90;;;;;;5015698;28;21016;-69
2024/04/03 03:42:42;;;;;;;3.00;1.37;;;11.70;99.90;;;;;;5007457;28;20767;-70
2024/04/03 03:45:08;;;;;;;3.17;1.63;;;11.80;99.90;;;;;;5021916;28;20414;-68
2024/04/03 03:47:33;;;;;;;2.33;1.43;;;11.70;99.90;;;;;;5008660;28;20240;-69
2024/04/03 03:52:45;;;;;;;2.60;1.47;;;11.70;99.90;;;;;;5004078;28;20241;-69
2024/04/03 03:55:10;;;;;;;2.80;1.40;;;11.70;99.90;;;;;;5021891;28;20830;-69
2024/04/03 03:57:36;;;;;;;5.20;1.83;;;11.70;99.90;;;;;;5008766;28;20245;-71
2024/04/03 04:00:03;;;;;;;2.00;1.57;;;11.70;99.90;;;;;;5011534;28;20170;-71
2024/04/03 04:02:28;;;;;;;1.67;1.37;;;11.60;99.90;;;;;;5025043;28;20275;-68
2024/04/03 04:04:54;;;;;;;2.10;1.27;;;11.60;99.90;;;;;;5017519;28;20446;-67
2024/04/03 04:07:21;;;;;;;3.17;1.60;;;11.60;99.90;;;;;;5017341;28;20216;-68
2024/04/03 04:09:52;;;;;;;4.00;1.67;;;11.60;99.90;;;;;;5023059;28;20334;-69
2024/04/03 04:12:19;;;;;;;2.40;1.30;;;11.60;99.90;;;;;;5017396;28;20415;-68
2024/04/03 04:14:51;;;;;;;1.50;1.30;;;11.60;99.90;;;;;;5007721;28;20413;-68
2024/04/03 04:17:18;;;;;;;5.30;1.30;;;11.70;99.90;;;;;;5017017;28;20479;-68
2024/04/03 04:19:44;;;;;;;2.93;1.60;;;11.70;99.90;;;;;;5007295;28;20417;-67
2024/04/03 04:22:09;;;;;;;1.53;1.20;;;11.70;99.90;;;;;;5017876;28;20412;-69
2024/04/03 04:24:36;;;;;;;1.67;1.20;;;11.70;99.90;;;;;;5021294;28;20917;-70
2024/04/03 04:27:12;;;;;;;2.10;1.30;;;11.60;99.90;;;;;;5011718;28;20181;-69
2024/04/03 04:29:41;;;;;;;3.90;1.27;;;11.70;99.90;;;;;;5007554;28;20461;-67
2024/04/03 04:32:08;;;;;;;2.50;1.60;;;11.70;99.90;;;;;;5007328;28;20543;-69
2024/04/03 04:34:33;;;;;;;3.00;1.40;;;11.50;99.90;;;;;;5009684;28;20436;-69
2024/04/03 04:36:59;;;;;;;3.10;1.57;;;11.50;99.90;;;;;;5009642;28;20434;-70
2024/04/03 04:39:25;;;;;;;2.43;1.20;;;11.60;99.90;;;;;;5019162;28;20180;-69
2024/04/03 04:41:51;;;;;;;1.03;0.93;;;11.50;99.90;;;;;;5008446;28;20416;-68
2024/04/03 04:44:20;;;;;;;1.80;1.43;;;11.30;99.90;;;;;;5007295;28;20514;-71
2024/04/03 04:46:50;;;;;;;4.67;1.43;;;11.20;99.90;;;;;;5009224;28;20446;-69
2024/04/03 04:49:16;;;;;;;3.13;1.60;;;11.40;99.90;;;;;;5010599;28;20453;-70
2024/04/03 04:51:43;;;;;;;2.70;1.37;;;11.40;99.90;;;;;;5013563;28;20460;-71
2024/04/03 04:54:09;;;;;;;1.77;1.30;;;11.50;99.90;;;;;;5014492;28;20434;-69
2024/04/03 04:56:35;;;;;;;3.00;1.60;;;11.50;99.90;;;;;;5011670;28;20851;-69
2024/04/03 04:59:00;;;;;;;4.40;1.50;;;11.40;99.90;;;;;;5019447;28;20556;-69
2024/04/03 05:01:26;;;;;;;2.20;1.77;;;11.40;99.90;;;;;;5018104;28;20257;-68
2024/04/03 05:03:51;;;;;;;1.90;1.37;;;11.20;99.90;;;;;;5023796;28;20190;-70
2024/04/03 05:06:18;;;;;;;1.60;1.10;;;11.20;99.90;;;;;;5015650;28;20176;-70
2024/04/03 05:08:45;;;;;;;5.00;1.93;;;11.00;99.90;;;;;;5017565;28;20771;-68
2024/04/03 05:11:11;;;;;;;3.03;1.30;;;11.10;99.90;;;;;;5016021;28;20939;-69
2024/04/03 05:13:37;;;;;;;2.30;1.30;;;11.30;99.90;;;;;;5007912;28;20916;-69
2024/04/03 05:16:12;;;;;;;1.93;1.20;;;11.40;99.90;;;;;;5019631;28;20472;-69
2024/04/03 05:18:39;;;;;;;3.53;1.60;;;11.50;99.90;;;;;;5013533;28;20269;-68
2024/04/03 05:21:05;;;;;;;1.80;1.00;;;11.70;99.90;;;;;;5015149;28;20423;-69
2024/04/03 05:23:31;;;;;;;3.80;1.07;;;11.60;99.90;;;;;;5016910;28;20450;-69
2024/04/03 05:26:07;;;;;;;2.27;1.23;;;11.50;99.80;;;;;;5015391;28;20909;-70
2024/04/03 05:28:35;;;;;;;3.03;1.03;;;11.70;99.90;;;;;;5011579;28;20207;-71
2024/04/03 05:31:05;;;;;;;2.30;1.23;;;11.70;99.70;;;;;;5010231;28;20537;-69
2024/04/03 05:33:32;;;;;;;1.90;1.17;;;11.70;99.90;;;;;;5011752;28;20419;-69
2024/04/03 05:36:00;;;;;;;2.37;1.83;;;11.90;99.90;;;;;;5017763;28;20447;-68
2024/04/03 05:38:26;;;;;;;2.33;1.60;;;12.10;99.90;;;;;;5024135;28;21564;-67
2024/04/03 05:40:52;;;;;;;4.10;3.10;;;11.90;99.90;;;;;;5020992;28;20455;-68
2024/04/03 05:43:18;;;;;;;14.50;7.63;;;12.00;99.90;;;;;;5019911;28;20858;-69
2024/04/03 05:45:45;;;;;;;8.60;6.17;;;12.20;99.70;;;;;;5022243;28;20506;-71
2024/04/03 05:48:11;;;;;;;9.97;7.13;;;12.30;99.60;;;;;;5016545;28;20515;-71
2024/04/03 05:50:37;;;;;;;6.70;3.63;;;12.40;99.40;;;;;;5021824;28;20697;-68
2024/04/03 05:53:03;;;;;;;2.60;1.47;;;12.60;99.20;;;;;;5019181;28;20923;-69
2024/04/03 05:55:29;;;;;;;3.67;2.60;;;12.70;99.10;;;;;;5019030;28;20195;-67
2024/04/03 05:57:55;;;;;;;2.33;1.13;;;12.70;98.70;;;;;;5013188;28;20217;-68
2024/04/03 06:00:21;;;;;;;1.43;1.10;;;12.30;98.60;;;;;;5017780;28;20475;-69
2024/04/03 06:02:46;;;;;;;1.57;1.20;;;12.20;99.00;;;;;;5016835;28;20187;-70
2024/04/03 06:05:12;;;;;;;1.67;1.20;;;12.10;99.00;;;;;;5023692;28;20476;-68
2024/04/03 06:07:38;;;;;;;3.17;1.53;;;12.00;99.60;;;;;;5016695;28;20200;-69
2024/04/03 06:10:05;;;;;;;1.60;0.90;;;11.90;99.90;;;;;;5017212;28;20191;-70
2024/04/03 06:12:31;;;;;;;1.50;0.97;;;11.80;99.90;;;;;;5019363;28;20426;-69
2024/04/03 06:14:57;;;;;;;3.10;1.30;;;11.90;99.90;;;;;;5021536;28;20415;-69
2024/04/03 06:17:22;;;;;;;1.63;0.80;;;12.00;99.90;;;;;;5014981;28;20835;-68
2024/04/03 06:19:48;;;;;;;2.20;1.20;;;12.20;99.90;;;;;;5019896;28;20433;-68
2024/04/03 06:22:14;;;;;;;1.27;0.90;;;12.40;99.90;;;;;;5018742;28;20544;-68
2024/04/03 06:24:40;;;;;;;2.53;1.27;;;12.50;99.90;;;;;;5015509;28;20599;-71
2024/04/03 06:27:06;;;;;;;1.87;1.00;;;12.60;99.90;;;;;;5010093;28;20433;-70
2024/04/03 06:29:31;;;;;;;1.37;1.00;;;12.60;99.90;;;;;;5016065;28;20415;-68
2024/04/03 06:31:58;;;;;;;4.00;0.90;;;12.40;99.90;;;;;;5010490;28;20189;-70
2024/04/03 06:34:24;;;;;;;1.77;1.17;;;12.60;99.90;;;;;;5011790;28;20268;-69
2024/04/03 06:36:49;;;;;;;1.87;1.07;;;12.90;99.90;;;;;;5016583;28;20475;-71
2024/04/03 06:39:15;;;;;;;1.80;0.80;;;13.00;99.90;;;;;;5017530;28;20281;-70
2024/04/03 06:41:41;;;;;;;2.87;1.67;;;13.10;99.90;;;;;;5014031;28;20265;-70
2024/04/03 06:44:06;;;;;;;1.30;1.00;;;13.20;99.90;;;;;;5013632;28;20220;-69
2024/04/03 06:46:32;;;;;;;3.50;1.00;;;13.20;99.90;;;;;;5019342;28;21183;-70
2024/04/03 06:48:57;;;;;;;1.77;0.90;;;13.10;99.90;;;;;;5015427;28;20223;-70
2024/04/03 06:51:23;;;;;;;2.37;0.90;;;12.80;99.90;;;;;;5015780;28;20190;-75
2024/04/03 06:53:49;;;;;;;2.30;1.20;;;12.60;99.90;;;;;;5015184;28;20187;-72
2024/04/03 06:56:15;;;;;;;2.07;1.10;;;12.60;99.90;;;;;;5014432;28;20266;-73
2024/04/03 06:58:42;;;;;;;2.50;2.30;;;12.90;99.90;;;;;;5004949;28;20553;-71
2024/04/03 07:01:09;;;;;;;1.83;1.30;;;13.00;99.90;;;;;;5015717;28;20400;-73
2024/04/03 07:03:35;;;;;;;2.33;1.67;;;12.90;99.90;;;;;;5014410;28;20460;-70
2024/04/03 07:06:01;;;;;;;1.90;1.37;;;12.80;99.90;;;;;;5015563;28;20822;-71
2024/04/03 07:08:27;;;;;;;1.83;1.20;;;12.70;99.90;;;;;;5008547;28;20668;-73
2024/04/03 07:10:53;;;;;;;3.03;1.30;;;12.70;99.90;;;;;;5017422;28;20217;-70
2024/04/03 07:13:18;;;;;;;2.13;1.80;;;13.00;99.90;;;;;;5020189;28;20480;-69
2024/04/03 07:15:47;;;;;;;4.40;1.73;;;12.90;99.90;;;;;;5014133;28;20679;-71
2024/04/03 07:18:13;;;;;;;5.50;1.70;;;12.80;99.90;;;;;;5012259;28;20218;-71
2024/04/03 07:20:40;;;;;;;1.43;1.27;;;13.00;99.90;;;;;;5010565;28;20412;-71
2024/04/03 07:23:06;;;;;;;1.70;1.27;;;12.90;99.90;;;;;;5015052;28;20419;-68
2024/04/03 07:25:32;;;;;;;4.30;1.42;;;13.10;99.90;;;;;;5014450;28;20422;-70
2024/04/03 07:28:11;;;;;;;1.93;1.10;;;13.40;99.90;;;;;;5019383;28;20292;-73
2024/04/03 07:30:37;;;;;;;2.10;1.10;;;13.50;99.90;;;;;;5017456;28;20649;-69
2024/04/03 07:33:04;;;;;;;2.27;1.23;;;13.30;99.90;;;;;;5009627;28;20429;-69
2024/04/03 07:35:30;;;;;;;2.90;1.53;;;13.40;99.90;;;;;;5012813;28;20436;-69
2024/04/03 07:37:56;;;;;;;1.60;1.23;;;13.40;99.90;;;;;;5013124;28;20474;-70
2024/04/03 07:40:22;;;;;;;1.67;1.00;;;13.40;99.90;;;;;;5016113;28;20230;-68
2024/04/03 07:42:48;;;;;;;2.20;1.27;;;13.70;99.90;;;;;;5016074;28;20438;-70
2024/04/03 07:45:14;;;;;;;4.57;1.43;;;13.70;99.90;;;;;;5006995;28;20291;-70
2024/04/03 07:47:41;;;;;;;2.23;1.27;;;13.90;99.90;;;;;;5006112;28;20357;-67
2024/04/03 07:50:07;;;;;;;3.00;1.30;;;13.80;99.90;;;;;;5009942;28;20427;-68
2024/04/03 07:52:37;;;;;;;1.70;1.30;;;13.70;99.90;;;;;;5015755;28;20502;-68
2024/04/03 07:55:12;;;;;;;4.10;1.30;;;13.80;99.90;;;;;;5017143;28;20410;-70
2024/04/03 07:57:38;;;;;;;3.30;1.50;;;13.80;99.90;;;;;;5013260;28;20462;-68
2024/04/03 08:00:05;;;;;;;2.23;1.30;;;13.90;99.90;;;;;;5008891;28;20414;-68
2024/04/03 08:02:40;;;;;;;1.80;1.07;;;13.90;99.90;;;;;;5009525;28;20175;-67
2024/04/03 08:05:13;;;;;;;3.43;1.40;;;13.80;99.90;;;;;;5020112;28;20402;-70
2024/04/03 08:07:39;;;;;;;3.20;1.40;;;13.90;99.90;;;;;;5007384;28;20815;-70
2024/04/03 08:10:09;;;;;;;1.47;1.20;;;14.10;99.90;;;;;;5020457;28;20419;-73
2024/04/03 08:12:36;;;;;;;3.70;1.60;;;14.30;99.90;;;;;;5014690;28;20941;-71
2024/04/03 08:15:02;;;;;;;3.37;1.30;;;14.20;99.90;;;;;;5017478;28;20487;-70
2024/04/03 08:17:28;;;;;;;3.80;1.27;;;13.90;99.90;;;;;;5014829;28;20982;-75
2024/04/03 08:19:55;;;;;;;2.67;1.20;;;13.90;99.90;;;;;;5015520;28;20408;-71
2024/04/03 08:22:21;;;;;;;2.20;1.13;;;14.20;99.90;;;;;;5013047;28;20175;-69
2024/04/03 08:24:47;;;;;;;1.30;1.00;;;14.50;99.90;;;;;;5011638;28;20423;-70
2024/04/03 08:27:13;;;;;;;1.30;1.10;;;14.80;99.90;;;;;;5003873;28;20473;-69
2024/04/03 08:29:42;;;;;;;1.17;0.80;;;15.00;99.90;;;;;;5016069;28;20495;-71
2024/04/03 08:32:11;;;;;;;1.20;0.90;;;15.20;99.10;;;;;;5018748;28;20729;-70
2024/04/03 08:34:37;;;;;;;2.20;1.13;;;15.00;98.30;;;;;;5008646;28;20492;-70
2024/04/03 08:37:07;;;;;;;2.90;1.00;;;15.10;98.10;;;;;;5006084;28;20504;-68
2024/04/03 08:39:33;;;;;;;4.77;1.20;;;15.10;98.10;;;;;;5020533;28;20401;-70
2024/04/03 08:42:00;;;;;;;2.30;1.00;;;15.40;98.40;;;;;;5021102;28;20465;-69
2024/04/03 08:44:31;;;;;;;2.10;0.97;;;15.30;98.10;;;;;;5007064;28;20508;-70
2024/04/03 08:46:57;;;;;;;1.10;0.90;;;15.40;98.00;;;;;;5014184;28;20448;-71
2024/04/03 08:49:34;;;;;;;1.27;0.80;;;15.30;97.80;;;;;;5008307;28;20414;-70
2024/04/03 08:52:05;;;;;;;2.83;1.30;;;15.10;98.80;;;;;;5016118;28;20410;-69
2024/04/03 08:54:31;;;;;;;2.17;1.00;;;15.20;98.50;;;;;;5014636;28;20491;-70
2024/04/03 08:56:59;;;;;;;1.83;0.90;;;15.40;98.60;;;;;;5021533;28;20468;-71
2024/04/03 08:59:25;;;;;;;3.47;1.13;;;15.40;97.80;;;;;;5014608;28;20406;-69
2024/04/03 09:01:51;;;;;;;1.70;1.10;;;15.50;98.50;;;;;;5018546;28;20422;-71
2024/04/03 09:04:18;;;;;;;2.80;1.10;;;15.50;97.50;;;;;;5022155;28;20432;-72
2024/04/03 09:06:44;;;;;;;1.37;1.10;;;15.30;98.40;;;;;;5020740;28;20423;-71
2024/04/03 09:09:25;;;;;;;2.20;1.20;;;15.70;98.60;;;;;;5010766;28;20983;-72
2024/04/03 09:11:59;;;;;;;2.27;0.90;;;15.90;97.80;;;;;;5020249;28;20916;-72
2024/04/03 09:14:25;;;;;;;3.50;1.00;;;15.90;97.40;;;;;;5018665;28;20512;-72
2024/04/03 09:17:06;;;;;;;2.23;1.37;;;15.90;97.40;;;;;;5016722;28;21507;-72
2024/04/03 09:19:33;;;;;;;3.07;1.10;;;16.20;97.50;;;;;;5016063;28;20391;-70
2024/04/03 09:22:00;;;;;;;2.20;1.17;;;16.00;97.20;;;;;;5019177;28;20504;-73
2024/04/03 09:24:26;;;;;;;4.00;1.27;;;16.00;97.70;;;;;;5023382;28;20413;-70
2024/04/03 09:26:56;;;;;;;2.40;1.10;;;16.00;97.40;;;;;;5009081;28;20415;-71
2024/04/03 09:29:22;;;;;;;2.70;1.37;;;16.50;96.60;;;;;;5005100;28;20215;-72
2024/04/03 09:31:48;;;;;;;1.00;0.87;;;16.20;96.30;;;;;;5014520;28;20763;-71
2024/04/03 09:34:14;;;;;;;1.57;1.20;;;15.80;96.30;;;;;;5015296;28;20422;-69
2024/04/03 09:36:41;;;;;;;3.97;1.60;;;15.70;97.40;;;;;;5014306;28;20584;-71
2024/04/03 09:39:09;;;;;;;1.97;1.40;;;15.80;98.50;;;;;;5012680;28;20457;-70
2024/04/03 09:41:36;;;;;;;4.10;1.80;;;15.90;98.10;;;;;;5025546;28;20436;-69
2024/04/03 09:44:07;;;;;;;1.70;1.07;;;15.80;97.70;;;;;;5012777;28;20415;-69
2024/04/03 09:46:46;;;;;;;1.77;1.00;;;15.90;97.30;;;;;;5010887;28;20767;-68
2024/04/03 09:49:13;;;;;;;2.50;1.10;;;16.00;98.00;;;;;;5011488;28;20453;-70
2024/04/03 09:51:39;;;;;;;1.77;1.17;;;16.10;96.90;;;;;;5021691;28;20970;-71
2024/04/03 09:54:06;;;;;;;3.23;1.23;;;16.30;97.10;;;;;;5013731;28;20410;-70
2024/04/03 09:56:31;;;;;;;2.10;0.93;;;16.30;97.10;;;;;;5005569;28;20666;-70
2024/04/03 09:59:01;;;;;;;2.33;1.23;;;16.80;96.60;;;;;;5011958;28;20461;-70
2024/04/03 10:01:31;;;;;;;1.83;1.27;;;16.90;96.00;;;;;;5018168;28;20167;-71
2024/04/03 10:04:07;;;;;;;2.10;1.00;;;17.10;95.10;;;;;;5008532;28;20443;-67
2024/04/03 10:06:38;;;;;;;2.90;1.30;;;16.80;94.10;;;;;;5008307;28;20403;-67
2024/04/03 10:09:25;;;;;;;3.90;1.10;;;16.70;94.50;;;;;;5013165;28;20286;-69
2024/04/03 10:11:57;;;;;;;3.40;0.80;;;16.60;94.20;;;;;;5017470;28;20786;-68
2024/04/03 10:14:27;;;;;;;1.23;0.63;;;16.70;93.90;;;;;;5016493;28;20481;-71
2024/04/03 10:16:56;;;;;;;2.93;0.90;;;16.90;93.90;;;;;;5015147;28;20421;-72
2024/04/03 10:19:24;;;;;;;1.53;0.80;;;17.00;94.20;;;;;;5036216;28;20438;-74
2024/04/03 10:21:53;;;;;;;1.07;0.70;;;17.00;93.60;;;;;;5013909;28;20992;-73
2024/04/03 10:24:19;;;;;;;1.83;1.07;;;16.90;93.50;;;;;;5016570;28;20549;-71
2024/04/03 10:26:46;;;;;;;1.37;0.80;;;16.40;94.30;;;;;;5017738;28;20508;-69
2024/04/03 10:29:11;;;;;;;1.93;0.70;;;16.30;95.40;;;;;;5018622;28;20693;-71
2024/04/03 10:31:37;;;;;;;1.20;0.73;;;16.10;97.00;;;;;;5010988;28;20422;-69
2024/04/03 10:34:02;;;;;;;1.97;0.77;;;16.20;99.00;;;;;;5015013;28;20191;-69
2024/04/03 10:36:28;;;;;;;0.93;0.60;;;15.90;98.70;;;;;;5012722;28;20266;-72
2024/04/03 10:38:54;;;;;;;1.30;0.70;;;15.80;98.00;;;;;;5015334;28;20250;-71
2024/04/03 10:41:20;;;;;;;1.10;0.60;;;15.50;98.70;;;;;;5015323;28;20484;-71
2024/04/03 10:43:45;;;;;;;2.50;0.80;;;15.30;99.20;;;;;;5016882;28;20184;-69
2024/04/03 10:46:14;;;;;;;1.20;0.70;;;15.40;99.90;;;;;;5015488;28;20178;-71
2024/04/03 10:48:43;;;;;;;1.10;0.70;;;15.70;99.90;;;;;;5017936;28;20219;-70
2024/04/03 10:51:09;;;;;;;0.90;0.57;;;15.40;99.60;;;;;;5017871;28;20859;-71
2024/04/03 10:53:37;;;;;;;1.33;0.60;;;15.40;99.90;;;;;;5017525;28;20485;-73
2024/04/03 10:56:04;;;;;;;1.57;1.00;;;15.30;99.90;;;;;;5008641;28;20426;-73
2024/04/03 10:58:30;;;;;;;1.60;0.73;;;15.40;99.90;;;;;;5012358;28;20469;-72
2024/04/03 11:00:55;;;;;;;3.20;0.60;;;16.00;99.90;;;;;;5011231;28;20430;-71
2024/04/03 11:03:22;;;;;;;2.40;1.03;;;16.00;99.40;;;;;;5016614;28;20257;-71
2024/04/03 11:05:49;;;;;;;1.03;0.90;;;16.20;99.60;;;;;;5013510;28;20405;-72
2024/04/03 11:08:16;;;;;;;1.40;0.70;;;16.50;99.60;;;;;;5012658;28;20457;-72
2024/04/03 11:10:41;;;;;;;1.50;1.00;;;16.60;99.70;;;;;;5014580;28;20480;-70
2024/04/03 11:13:09;;;;;;;1.10;0.60;;;16.60;99.80;;;;;;5016518;28;20437;-71
2024/04/03 11:15:36;;;;;;;1.67;0.60;;;16.80;99.10;;;;;;5010820;28;20188;-70
2024/04/03 11:18:01;;;;;;;1.50;0.63;;;16.80;98.10;;;;;;5009204;28;20462;-72
2024/04/03 11:20:29;;;;;;;1.20;0.57;;;16.70;98.50;;;;;;5014251;28;20883;-71
2024/04/03 11:22:56;;;;;;;1.00;0.60;;;16.50;98.30;;;;;;5009160;28;20172;-71
2024/04/03 11:25:31;;;;;;;1.00;0.65;;;16.00;98.40;;;;;;5010130;28;20604;-70
2024/04/03 11:28:00;;;;;;;1.43;0.70;;;15.60;99.00;;;;;;5011340;28;20203;-69
2024/04/03 11:30:35;;;;;;;0.90;0.60;;;15.30;99.20;;;;;;5011868;28;20888;-70
2024/04/03 11:33:01;;;;;;;1.57;0.80;;;15.40;99.90;;;;;;5019697;28;20410;-69
2024/04/03 11:35:28;;;;;;;1.00;0.67;;;15.60;99.30;;;;;;5005761;28;20427;-69
2024/04/03 11:37:54;;;;;;;0.80;0.53;;;15.70;98.90;;;;;;5015258;28;20576;-68
2024/04/03 11:40:19;;;;;;;1.30;0.87;;;15.50;98.70;;;;;;5010890;28;20414;-69
2024/04/03 11:42:45;;;;;;;1.17;0.60;;;15.60;99.50;;;;;;5006333;28;21308;-69
2024/04/03 11:45:10;;;;;;;0.90;0.50;;;15.30;99.90;;;;;;5008491;28;20191;-68
2024/04/03 11:47:36;;;;;;;1.40;0.70;;;15.40;99.90;;;;;;5008251;28;20594;-69
2024/04/03 11:50:03;;;;;;;1.53;0.70;;;15.30;99.90;;;;;;5008450;28;20740;-68
2024/04/03 11:52:30;;;;;;;2.63;0.60;;;15.20;99.90;;;;;;5012702;28;20182;-69
2024/04/03 11:54:55;;;;;;;1.30;0.60;;;15.60;99.90;;;;;;5009764;28;20496;-67
2024/04/03 11:57:22;;;;;;;1.07;0.60;;;15.60;99.90;;;;;;5007307;28;21568;-70
2024/04/03 11:59:47;;;;;;;1.90;0.83;;;15.40;99.90;;;;;;5018284;28;20183;-70
2024/04/03 12:02:13;;;;;;;1.47;0.60;;;15.50;99.90;;;;;;5008809;28;20634;-69
2024/04/03 12:04:39;;;;;;;0.80;0.60;;;15.80;99.90;;;;;;5013349;28;20495;-70
2024/04/03 12:07:04;;;;;;;0.70;0.50;;;15.80;99.90;;;;;;5012394;28;20182;-71
2024/04/03 12:09:30;;;;;;;1.63;0.80;;;16.20;99.90;;;;;;5017658;28;20879;-70
2024/04/03 12:11:56;;;;;;;1.30;0.80;;;16.60;99.90;;;;;;5015149;28;20406;-70
2024/04/03 12:14:21;;;;;;;0.90;0.50;;;16.50;99.90;;;;;;5007933;28;20264;-71
2024/04/03 12:16:52;;;;;;;0.90;0.50;;;15.90;99.90;;;;;;5015068;28;20222;-71
2024/04/03 12:19:29;;;;;;;1.70;0.70;;;15.40;99.90;;;;;;5014144;28;20206;-69
2024/04/03 12:21:55;;;;;;;1.10;0.70;;;15.40;99.90;;;;;;5016016;28;20403;-68
2024/04/03 12:24:21;;;;;;;1.00;0.60;;;15.50;99.90;;;;;;5020484;28;20764;-68
2024/04/03 12:26:46;;;;;;;1.00;0.70;;;15.50;99.90;;;;;;5019961;28;20194;-70
2024/04/03 12:29:16;;;;;;;0.90;0.60;;;15.60;99.90;;;;;;5012447;28;20209;-69
2024/04/03 12:31:42;;;;;;;0.80;0.50;;;15.60;99.90;;;;;;5010857;28;20352;-70
2024/04/03 12:34:09;;;;;;;0.90;0.60;;;15.90;99.90;;;;;;5011987;28;20426;-71
2024/04/03 12:36:36;;;;;;;0.80;0.50;;;15.90;99.90;;;;;;5017064;28;20880;-68
2024/04/03 12:39:01;;;;;;;1.43;0.60;;;15.70;99.90;;;;;;5021072;28;20562;-70
2024/04/03 12:41:27;;;;;;;0.80;0.70;;;15.60;99.90;;;;;;5022320;28;20496;-70
2024/04/03 12:43:53;;;;;;;0.80;0.60;;;15.80;99.90;;;;;;5018315;28;20303;-71
2024/04/03 12:46:19;;;;;;;0.90;0.60;;;16.00;99.90;;;;;;5017803;28;20954;-71
2024/04/03 12:48:44;;;;;;;0.90;0.60;;;15.90;99.90;;;;;;5014754;28;20453;-73